createdAt,value
2022-10-31T00:02:00.028Z,12.67
2022-10-31T00:04:31.932Z,12.63
2022-10-31T00:07:03.567Z,12.57
2022-10-31T00:09:35.262Z,12.54
2022-10-31T00:12:07.572Z,12.42
2022-10-31T00:14:39.691Z,12.38
2022-10-31T00:17:11.615Z,12.42
2022-10-31T00:19:43.358Z,12.49
2022-10-31T00:22:15.118Z,12.48
2022-10-31T00:24:46.788Z,12.36
2022-10-31T00:27:18.449Z,12.26
2022-10-31T00:29:49.805Z,12.21
2022-10-31T00:32:21.757Z,12.21
2022-10-31T00:34:53.641Z,12.25
2022-10-31T00:37:25.432Z,12.31
2022-10-31T00:39:57.122Z,12.34
2022-10-31T00:42:28.815Z,12.35
2022-10-31T00:45:02.841Z,12.30
2022-10-31T00:47:34.629Z,12.30
2022-10-31T00:50:06.987Z,12.33
2022-10-31T00:52:39.004Z,12.27
2022-10-31T00:55:11.312Z,12.06
2022-10-31T00:57:42.965Z,12.02
2022-10-31T01:00:16.651Z,12.01
2022-10-31T01:02:48.571Z,12.07
2022-10-31T01:05:20.655Z,12.10
2022-10-31T01:07:52.640Z,12.13
2022-10-31T01:10:24.552Z,12.14
2022-10-31T01:12:57.355Z,12.13
2022-10-31T01:15:29.377Z,12.12
2022-10-31T01:18:01.371Z,12.02
2022-10-31T01:20:35.573Z,11.86
2022-10-31T01:23:07.555Z,11.78
2022-10-31T01:25:39.752Z,11.70
2022-10-31T01:28:11.475Z,11.63
2022-10-31T01:30:43.137Z,11.54
2022-10-31T01:33:14.792Z,11.36
2022-10-31T01:35:48.856Z,11.35
2022-10-31T01:38:20.603Z,11.33
2022-10-31T01:40:52.560Z,11.19
2022-10-31T01:43:24.231Z,11.21
2022-10-31T01:45:56.974Z,11.26
2022-10-31T01:48:29.173Z,11.23
2022-10-31T01:51:01.069Z,11.25
2022-10-31T01:53:33.017Z,11.28
2022-10-31T01:56:05.125Z,11.22
2022-10-31T01:58:37.320Z,11.20
2022-10-31T02:01:09.271Z,11.16
2022-10-31T02:03:41.665Z,11.15
2022-10-31T02:06:22.863Z,11.18
2022-10-31T02:08:55.726Z,11.25
2022-10-31T02:11:27.916Z,11.37
2022-10-31T02:14:00.303Z,11.44
2022-10-31T02:16:32.231Z,11.41
2022-10-31T02:19:04.622Z,11.37
2022-10-31T02:21:44.976Z,11.26
2022-10-31T02:24:45.647Z,11.14
2022-10-31T02:27:43.329Z,11.02
2022-10-31T02:30:20.520Z,11.09
2022-10-31T02:33:16.957Z,11.09
2022-10-31T02:35:59.442Z,11.12
2022-10-31T02:38:41.153Z,11.08
2022-10-31T02:41:21.990Z,11.01
2022-10-31T02:44:05.886Z,10.96
2022-10-31T02:46:42.104Z,10.93
2022-10-31T02:49:25.306Z,10.92
2022-10-31T02:51:57.656Z,10.99
2022-10-31T02:54:31.074Z,10.94
2022-10-31T02:57:08.693Z,11.00
2022-10-31T02:59:47.781Z,11.08
2022-10-31T03:02:51.176Z,11.08
2022-10-31T03:05:37.461Z,10.88
2022-10-31T03:08:18.014Z,10.95
2022-10-31T03:10:55.461Z,10.82
2022-10-31T03:13:34.723Z,10.80
2022-10-31T03:16:13.772Z,10.76
2022-10-31T03:18:52.053Z,10.82
2022-10-31T03:21:28.342Z,10.65
2022-10-31T03:24:01.599Z,10.85
2022-10-31T03:26:35.421Z,10.84
2022-10-31T03:29:09.925Z,10.84
2022-10-31T03:31:53.120Z,10.84
2022-10-31T03:34:27.755Z,11.01
2022-10-31T03:37:04.306Z,10.98
2022-10-31T03:39:38.441Z,10.96
2022-10-31T03:42:14.061Z,10.95
2022-10-31T03:44:52.733Z,11.09
2022-10-31T03:47:25.152Z,11.09
2022-10-31T03:49:57.936Z,11.00
2022-10-31T03:52:36.527Z,10.94
2022-10-31T03:55:15.773Z,11.01
2022-10-31T03:57:55.097Z,11.17
2022-10-31T04:00:28.742Z,11.15
2022-10-31T04:03:05.670Z,11.13
2022-10-31T04:05:39.600Z,11.10
2022-10-31T04:08:16.377Z,11.12
2022-10-31T04:10:51.776Z,11.06
2022-10-31T04:13:29.131Z,11.07
2022-10-31T04:16:17.346Z,11.08
2022-10-31T04:18:49.484Z,11.10
2022-10-31T04:21:21.594Z,11.05
2022-10-31T04:23:53.852Z,10.92
2022-10-31T04:26:30.105Z,10.81
2022-10-31T04:29:01.224Z,10.71
2022-10-31T04:31:32.892Z,10.62
2022-10-31T04:34:04.557Z,10.66
2022-10-31T04:36:36.362Z,10.60
2022-10-31T04:39:08.047Z,10.44
2022-10-31T04:42:00.237Z,10.43
2022-10-31T04:44:31.909Z,10.46
2022-10-31T04:47:05.496Z,10.36
2022-10-31T04:49:37.209Z,10.34
2022-10-31T04:52:09.216Z,10.29
2022-10-31T04:54:40.901Z,10.29
2022-10-31T04:57:45.631Z,10.31
2022-10-31T05:00:20.831Z,10.20
2022-10-31T05:02:56.703Z,10.30
2022-10-31T05:05:32.934Z,10.37
2022-10-31T05:08:06.937Z,10.38
2022-10-31T05:10:38.622Z,10.45
2022-10-31T05:13:10.468Z,10.43
2022-10-31T05:16:05.069Z,10.35
2022-10-31T05:18:56.693Z,10.25
2022-10-31T05:21:53.459Z,10.12
2022-10-31T05:24:25.362Z,10.06
2022-10-31T05:26:57.872Z,10.05
2022-10-31T05:29:29.599Z,10.09
2022-10-31T05:32:01.290Z,10.19
2022-10-31T05:35:10.163Z,10.38
2022-10-31T05:38:01.447Z,10.44
2022-10-31T05:40:33.062Z,10.29
2022-10-31T05:43:04.707Z,10.26
2022-10-31T05:45:36.323Z,10.30
2022-10-31T05:48:11.855Z,10.31
2022-10-31T05:51:02.079Z,10.25
2022-10-31T05:53:33.711Z,10.37
2022-10-31T05:56:05.660Z,10.54
2022-10-31T05:58:37.604Z,10.59
2022-10-31T06:01:10.999Z,10.61
2022-10-31T06:03:43.104Z,10.60
2022-10-31T06:06:15.377Z,10.68
2022-10-31T06:08:47.022Z,10.63
2022-10-31T06:11:20.638Z,10.64
2022-10-31T06:14:15.174Z,10.69
2022-10-31T06:17:04.970Z,10.69
2022-10-31T06:22:26.585Z,10.88
2022-10-31T06:24:58.354Z,10.92
2022-10-31T06:27:40.279Z,10.97
2022-10-31T06:30:17.854Z,10.98
2022-10-31T06:32:51.563Z,11.04
2022-10-31T06:35:24.956Z,10.97
2022-10-31T06:37:57.574Z,10.86
2022-10-31T06:40:35.669Z,10.72
2022-10-31T06:43:36.598Z,10.81
2022-10-31T06:46:27.131Z,10.96
2022-10-31T06:49:19.070Z,11.14
2022-10-31T06:52:02.470Z,11.19
2022-10-31T06:54:34.396Z,11.08
2022-10-31T06:57:06.314Z,10.86
2022-10-31T06:59:38.075Z,10.72
2022-10-31T07:02:17.868Z,10.77
2022-10-31T07:04:49.618Z,11.00
2022-10-31T07:07:22.692Z,11.14
2022-10-31T07:09:55.509Z,11.20
2022-10-31T07:12:39.434Z,11.30
2022-10-31T07:15:12.289Z,11.41
2022-10-31T07:17:44.042Z,11.56
2022-10-31T07:20:19.047Z,11.63
2022-10-31T07:22:50.974Z,11.60
2022-10-31T07:25:21.914Z,11.69
2022-10-31T07:28:32.053Z,11.73
2022-10-31T07:31:04.647Z,11.77
2022-10-31T07:33:36.689Z,11.80
2022-10-31T07:36:37.443Z,11.84
2022-10-31T07:39:09.278Z,11.92
2022-10-31T07:41:41.022Z,11.99
2022-10-31T07:44:14.283Z,12.04
2022-10-31T07:47:04.813Z,12.08
2022-10-31T07:49:55.384Z,12.12
2022-10-31T07:52:46.156Z,12.19
2022-10-31T07:55:47.341Z,12.26
2022-10-31T07:58:20.003Z,12.30
2022-10-31T08:00:52.116Z,12.33
2022-10-31T08:03:30.890Z,12.33
2022-10-31T08:06:21.696Z,12.36
2022-10-31T08:09:12.096Z,12.44
2022-10-31T08:11:44.469Z,12.36
2022-10-31T08:14:16.641Z,12.47
2022-10-31T08:16:49.556Z,12.51
2022-10-31T08:19:22.810Z,12.56
2022-10-31T08:21:56.676Z,12.60
2022-10-31T08:24:28.751Z,12.74
2022-10-31T08:27:03.624Z,12.86
2022-10-31T08:29:35.949Z,12.86
2022-10-31T08:32:08.727Z,12.91
2022-10-31T08:35:00.036Z,13.02
2022-10-31T08:37:56.620Z,13.06
2022-10-31T08:40:31.838Z,13.18
2022-10-31T08:43:06.364Z,13.28
2022-10-31T08:45:38.820Z,13.27
2022-10-31T08:48:17.884Z,13.22
2022-10-31T08:50:50.443Z,13.31
2022-10-31T08:53:23.644Z,13.44
2022-10-31T08:56:03.790Z,13.52
2022-10-31T08:58:40.095Z,13.56
2022-10-31T09:01:12.483Z,13.59
2022-10-31T09:03:44.250Z,13.58
2022-10-31T09:06:16.194Z,13.60
2022-10-31T09:08:48.046Z,13.61
2022-10-31T09:11:19.652Z,13.65
2022-10-31T09:14:10.114Z,13.74
2022-10-31T09:16:44.556Z,13.83
2022-10-31T09:19:21.870Z,13.63
2022-10-31T09:21:56.598Z,13.67
2022-10-31T09:24:28.248Z,13.65
2022-10-31T09:27:01.741Z,13.66
2022-10-31T09:29:33.405Z,13.68
2022-10-31T09:32:05.645Z,13.73
2022-10-31T09:34:43.410Z,13.70
2022-10-31T09:37:16.757Z,13.76
2022-10-31T09:39:48.477Z,13.85
2022-10-31T09:42:44.516Z,13.97
2022-10-31T09:45:28.510Z,14.13
2022-10-31T09:48:15.182Z,14.06
2022-10-31T09:51:10.975Z,14.22
2022-10-31T09:54:04.119Z,14.31
2022-10-31T09:56:36.826Z,14.31
2022-10-31T09:59:19.380Z,14.55
2022-10-31T10:01:53.589Z,14.90
2022-10-31T10:04:40.297Z,15.12
2022-10-31T10:07:32.368Z,15.44
2022-10-31T10:10:39.950Z,15.50
2022-10-31T10:13:58.824Z,15.55
2022-10-31T10:16:53.431Z,15.70
2022-10-31T10:19:45.345Z,15.93
2022-10-31T10:22:23.309Z,15.85
2022-10-31T10:25:13.167Z,15.97
2022-10-31T10:27:53.568Z,16.19
2022-10-31T10:30:36.358Z,16.39
2022-10-31T10:33:13.393Z,16.47
2022-10-31T10:35:49.272Z,16.69
2022-10-31T10:38:29.487Z,16.77
2022-10-31T10:41:03.992Z,16.91
2022-10-31T10:43:38.158Z,17.03
2022-10-31T10:46:37.658Z,17.08
2022-10-31T10:49:20.217Z,17.33
2022-10-31T10:52:19.867Z,17.25
2022-10-31T10:55:03.429Z,17.43
2022-10-31T10:57:55.090Z,17.61
2022-10-31T11:00:29.702Z,17.62
2022-10-31T11:03:02.162Z,17.95
2022-10-31T11:05:36.247Z,18.22
2022-10-31T11:08:08.857Z,18.35
2022-10-31T11:10:41.203Z,18.49
2022-10-31T11:13:25.676Z,18.58
2022-10-31T11:16:04.768Z,18.65
2022-10-31T11:18:39.836Z,18.77
2022-10-31T11:21:24.300Z,18.85
2022-10-31T11:24:14.493Z,18.83
2022-10-31T11:26:48.624Z,18.89
2022-10-31T11:29:25.815Z,19.02
2022-10-31T11:32:01.036Z,19.15
2022-10-31T11:34:35.515Z,19.38
2022-10-31T11:37:17.941Z,19.52
2022-10-31T11:39:55.088Z,19.41
2022-10-31T11:42:31.278Z,19.40
2022-10-31T11:45:08.336Z,19.51
2022-10-31T11:47:43.654Z,19.66
2022-10-31T11:50:24.287Z,19.78
2022-10-31T11:52:57.484Z,19.76
2022-10-31T11:55:38.534Z,19.81
2022-10-31T11:58:24.420Z,19.95
2022-10-31T12:00:58.541Z,20.15
2022-10-31T12:03:42.763Z,20.20
2022-10-31T12:06:18.928Z,20.14
2022-10-31T12:08:50.814Z,20.02
2022-10-31T12:11:42.724Z,19.99
2022-10-31T12:14:25.417Z,20.12
2022-10-31T12:17:03.454Z,20.15
2022-10-31T12:19:43.414Z,20.04
2022-10-31T12:22:25.613Z,20.18
2022-10-31T12:25:13.512Z,20.18
2022-10-31T12:28:26.685Z,20.11
2022-10-31T12:31:10.460Z,19.96
2022-10-31T12:33:55.234Z,20.05
2022-10-31T12:36:40.756Z,19.88
2022-10-31T12:39:26.745Z,20.04
2022-10-31T12:42:08.060Z,20.03
2022-10-31T12:44:57.902Z,20.06
2022-10-31T12:47:43.654Z,20.04
2022-10-31T12:50:31.239Z,19.95
2022-10-31T12:56:03.605Z,19.86
2022-10-31T12:58:39.087Z,19.95
2022-10-31T13:01:16.889Z,19.98
2022-10-31T13:03:55.393Z,20.04
2022-10-31T13:06:44.358Z,19.90
2022-10-31T13:09:22.048Z,19.88
2022-10-31T13:11:59.209Z,19.96
2022-10-31T13:14:44.035Z,20.00
2022-10-31T13:17:24.137Z,20.05
2022-10-31T13:20:03.420Z,19.94
2022-10-31T13:22:37.614Z,19.99
2022-10-31T13:25:17.226Z,19.92
2022-10-31T13:27:56.262Z,19.82
2022-10-31T13:30:31.653Z,19.70
2022-10-31T13:33:10.487Z,19.75
2022-10-31T13:35:48.940Z,19.69
2022-10-31T13:38:31.847Z,19.62
2022-10-31T13:41:06.487Z,19.71
2022-10-31T13:43:56.764Z,19.76
2022-10-31T13:46:38.572Z,19.73
2022-10-31T13:49:26.138Z,19.74
2022-10-31T13:52:14.379Z,19.71
2022-10-31T13:54:48.625Z,19.63
2022-10-31T13:57:24.609Z,19.60
2022-10-31T14:00:00.353Z,19.57
2022-10-31T14:02:35.450Z,19.54
2022-10-31T14:05:26.338Z,19.45
2022-10-31T14:08:01.675Z,19.44
2022-10-31T14:10:38.569Z,19.45
2022-10-31T14:13:17.672Z,19.44
2022-10-31T14:15:59.222Z,19.46
2022-10-31T14:18:35.434Z,19.43
2022-10-31T14:21:29.283Z,19.38
2022-10-31T14:24:01.137Z,19.35
2022-10-31T14:26:37.982Z,19.27
2022-10-31T14:29:27.572Z,19.25
2022-10-31T14:32:08.708Z,19.09
2022-10-31T14:34:43.249Z,19.00
2022-10-31T14:37:47.481Z,18.94
2022-10-31T14:40:32.908Z,18.90
2022-10-31T14:43:35.780Z,18.90
2022-10-31T14:46:16.664Z,18.81
2022-10-31T14:49:12.645Z,18.77
2022-10-31T14:51:46.858Z,18.70
2022-10-31T14:54:23.886Z,18.66
2022-10-31T14:57:01.672Z,18.64
2022-10-31T14:59:37.362Z,18.62
2022-10-31T15:02:19.804Z,18.62
2022-10-31T15:04:53.266Z,18.56
2022-10-31T15:07:27.986Z,18.47
2022-10-31T15:10:02.061Z,18.38
2022-10-31T15:12:36.176Z,18.27
2022-10-31T15:15:20.788Z,18.16
2022-10-31T15:17:56.595Z,18.03
2022-10-31T15:20:30.200Z,17.93
2022-10-31T15:23:03.234Z,17.86
2022-10-31T15:25:37.153Z,17.78
2022-10-31T15:28:23.268Z,17.66
2022-10-31T15:30:57.014Z,17.55
2022-10-31T15:33:37.580Z,17.46
2022-10-31T15:36:25.625Z,17.44
2022-10-31T15:39:00.812Z,17.34
2022-10-31T15:41:36.365Z,17.25
2022-10-31T15:44:16.809Z,17.21
2022-10-31T15:46:56.746Z,17.22
2022-10-31T15:49:37.120Z,17.17
2022-10-31T15:52:17.916Z,17.06
2022-10-31T15:54:53.868Z,16.99
2022-10-31T15:57:27.197Z,16.91
2022-10-31T15:59:59.086Z,16.86
2022-10-31T16:02:31.038Z,16.73
2022-10-31T16:05:04.076Z,16.68
2022-10-31T16:07:36.048Z,16.68
2022-10-31T16:10:22.021Z,16.66
2022-10-31T16:12:54.414Z,16.62
2022-10-31T16:15:26.284Z,16.54
2022-10-31T16:18:01.571Z,16.50
2022-10-31T16:20:34.449Z,16.45
2022-10-31T16:23:06.364Z,16.39
2022-10-31T16:25:40.859Z,16.32
2022-10-31T16:28:20.401Z,16.26
2022-10-31T16:30:54.070Z,16.21
2022-10-31T16:33:34.166Z,16.16
2022-10-31T16:36:36.542Z,16.12
2022-10-31T16:39:09.347Z,16.01
2022-10-31T16:41:44.888Z,16.02
2022-10-31T16:44:23.617Z,16.28
2022-10-31T16:47:14.411Z,17.95
2022-10-31T16:49:50.900Z,18.24
2022-10-31T16:52:22.602Z,17.21
2022-10-31T16:54:55.171Z,17.58
2022-10-31T16:57:32.368Z,17.49
2022-10-31T17:00:05.490Z,17.45
2022-10-31T17:02:37.489Z,17.96
2022-10-31T17:05:13.520Z,18.12
2022-10-31T17:07:45.799Z,18.16
2022-10-31T17:10:20.210Z,18.59
2022-10-31T17:12:53.078Z,18.81
2022-10-31T17:15:27.009Z,18.58
2022-10-31T17:17:59.084Z,17.12
2022-10-31T17:20:33.044Z,16.60
2022-10-31T17:23:05.243Z,16.45
2022-10-31T17:25:37.409Z,16.33
2022-10-31T17:28:12.470Z,16.27
2022-10-31T17:30:45.349Z,16.20
2022-10-31T17:33:16.264Z,16.13
2022-10-31T17:35:48.136Z,15.93
2022-10-31T17:38:20.097Z,15.82
2022-10-31T17:40:51.895Z,15.61
2022-10-31T17:43:27.250Z,15.50
2022-10-31T17:46:01.859Z,15.32
2022-10-31T17:48:34.113Z,15.29
2022-10-31T17:51:07.221Z,15.36
2022-10-31T17:53:39.445Z,15.22
2022-10-31T17:56:12.557Z,15.23
2022-10-31T17:58:45.219Z,15.19
2022-10-31T18:01:18.678Z,15.22
2022-10-31T18:03:52.316Z,15.21
2022-10-31T18:06:24.804Z,15.24
2022-10-31T18:08:58.132Z,15.14
2022-10-31T18:11:29.931Z,15.01
2022-10-31T18:14:02.020Z,15.01
2022-10-31T18:16:34.099Z,15.00
2022-10-31T18:19:06.088Z,14.96
2022-10-31T18:21:38.271Z,14.80
2022-10-31T18:24:11.957Z,14.70
2022-10-31T18:26:43.568Z,14.75
2022-10-31T18:29:15.598Z,14.66
2022-10-31T18:31:49.598Z,14.67
2022-10-31T18:34:21.715Z,14.48
2022-10-31T18:36:53.711Z,14.35
2022-10-31T18:39:25.716Z,14.47
2022-10-31T18:41:58.212Z,14.27
2022-10-31T18:44:30.769Z,14.23
2022-10-31T18:47:02.567Z,14.33
2022-10-31T18:49:34.396Z,14.26
2022-10-31T18:52:06.827Z,14.23
2022-10-31T18:54:38.690Z,14.19
2022-10-31T18:57:10.457Z,14.16
2022-10-31T18:59:42.246Z,14.17
2022-10-31T19:02:15.865Z,14.09
2022-10-31T19:04:47.772Z,14.10
2022-10-31T19:07:19.817Z,14.08
2022-10-31T19:09:51.574Z,14.03
2022-10-31T19:12:25.762Z,13.84
2022-10-31T19:14:57.580Z,13.83
2022-10-31T19:17:29.436Z,13.75
2022-10-31T19:20:01.168Z,13.87
2022-10-31T19:22:34.421Z,13.79
2022-10-31T19:25:10.585Z,13.72
2022-10-31T19:27:43.253Z,13.68
2022-10-31T19:30:17.054Z,13.75
2022-10-31T19:32:48.890Z,13.73
2022-10-31T19:35:20.709Z,13.74
2022-10-31T19:37:52.722Z,13.67
2022-10-31T19:40:24.748Z,13.58
2022-10-31T19:42:56.941Z,13.62
2022-10-31T19:45:29.637Z,13.60
2022-10-31T19:48:04.045Z,13.51
2022-10-31T19:50:37.153Z,13.64
2022-10-31T19:53:08.790Z,13.45
2022-10-31T19:55:45.702Z,13.51
2022-10-31T19:58:18.681Z,13.47
2022-10-31T20:00:51.429Z,13.49
2022-10-31T20:03:24.401Z,13.56
2022-10-31T20:05:57.060Z,13.53
2022-10-31T20:08:28.948Z,13.57
2022-10-31T20:11:05.940Z,13.59
2022-10-31T20:13:39.300Z,13.64
2022-10-31T20:16:13.928Z,13.64
2022-10-31T20:18:48.084Z,13.63
2022-10-31T20:21:26.517Z,13.68
2022-10-31T20:24:00.623Z,13.55
2022-10-31T20:26:36.402Z,13.61
2022-10-31T20:29:09.570Z,13.61
2022-10-31T20:31:41.697Z,13.58
2022-10-31T20:34:13.982Z,13.53
2022-10-31T20:36:46.727Z,13.43
2022-10-31T20:39:17.066Z,13.50
2022-10-31T20:41:51.631Z,13.39
2022-10-31T20:44:24.382Z,13.31
2022-10-31T20:47:00.785Z,13.45
2022-10-31T20:49:34.719Z,13.51
2022-10-31T20:52:07.447Z,13.54
2022-10-31T20:54:39.495Z,13.55
2022-10-31T20:57:11.380Z,13.62
2022-10-31T20:59:43.650Z,13.62
2022-10-31T21:02:17.029Z,13.46
2022-10-31T21:04:49.659Z,13.43
2022-10-31T21:07:21.529Z,13.54
2022-10-31T21:09:53.628Z,13.58
2022-10-31T21:12:25.560Z,13.60
2022-10-31T21:14:57.702Z,13.64
2022-10-31T21:17:31.215Z,13.67
2022-10-31T21:20:04.798Z,13.72
2022-10-31T21:22:36.772Z,13.73
2022-10-31T21:25:10.859Z,13.62
2022-10-31T21:27:45.921Z,13.60
2022-10-31T21:30:16.859Z,13.65
2022-10-31T21:32:49.192Z,13.61
2022-10-31T21:35:21.448Z,13.55
2022-10-31T21:37:52.822Z,13.59
2022-10-31T21:40:25.340Z,13.66
2022-10-31T21:42:56.559Z,13.64
2022-10-31T21:45:28.744Z,13.56
2022-10-31T21:48:01.357Z,13.59
2022-10-31T21:50:34.968Z,13.58
2022-10-31T21:53:20.689Z,13.56
2022-10-31T21:55:52.771Z,13.55
2022-10-31T21:58:25.885Z,13.50
2022-10-31T22:01:01.369Z,13.52
2022-10-31T22:03:35.547Z,13.46
2022-10-31T22:06:09.010Z,13.50
2022-10-31T22:08:43.745Z,13.41
2022-10-31T22:11:17.668Z,13.37
2022-10-31T22:13:50.861Z,13.38
2022-10-31T22:16:24.663Z,13.36
2022-10-31T22:18:58.021Z,13.28
2022-10-31T22:21:30.444Z,13.33
2022-10-31T22:24:05.112Z,13.35
2022-10-31T22:26:40.488Z,13.47
2022-10-31T22:29:13.009Z,13.36
2022-10-31T22:31:48.464Z,13.37
2022-10-31T22:34:22.753Z,13.24
2022-10-31T22:36:56.662Z,13.26
2022-10-31T22:39:28.601Z,13.33
2022-10-31T22:42:00.446Z,13.39
2022-10-31T22:44:32.141Z,13.34
2022-10-31T22:47:04.254Z,13.41
2022-10-31T22:49:36.055Z,13.40
2022-10-31T22:52:08.060Z,13.39
2022-10-31T22:54:39.794Z,13.38
2022-10-31T22:57:11.646Z,13.34
2022-10-31T22:59:43.451Z,13.41
2022-10-31T23:02:15.329Z,13.43
2022-10-31T23:04:46.993Z,13.40
2022-10-31T23:07:23.121Z,13.47
2022-10-31T23:09:56.613Z,13.35
2022-10-31T23:12:48.292Z,13.38
2022-10-31T23:15:20.225Z,13.41
2022-10-31T23:17:51.870Z,13.37
2022-10-31T23:20:23.574Z,13.41
2022-10-31T23:22:55.143Z,13.40
2022-10-31T23:25:44.638Z,13.40
2022-10-31T23:28:16.366Z,13.43
2022-10-31T23:30:49.293Z,13.48
2022-10-31T23:33:21.101Z,13.47
2022-10-31T23:35:52.806Z,13.51
2022-10-31T23:38:24.498Z,13.54
2022-10-31T23:40:56.132Z,13.46
2022-10-31T23:43:27.845Z,13.36
2022-10-31T23:45:59.537Z,13.36
2022-10-31T23:48:31.383Z,13.39
2022-10-31T23:51:03.045Z,13.41
2022-10-31T23:56:06.770Z,13.35
2022-10-31T23:58:38.398Z,13.33
